createdAt,value
2017-06-29T00:01:58.691Z,19.60
2017-06-29T00:04:27.683Z,19.50
2017-06-29T00:06:55.794Z,19.40
2017-06-29T00:09:23.933Z,19.30
2017-06-29T00:11:52.802Z,19.20
2017-06-29T00:14:20.916Z,19.20
2017-06-29T00:16:49.008Z,19.10
2017-06-29T00:19:17.235Z,19.20
2017-06-29T00:21:45.354Z,19.10
2017-06-29T00:24:13.456Z,19.00
2017-06-29T00:26:41.602Z,18.90
2017-06-29T00:29:12.729Z,18.90
2017-06-29T00:31:41.592Z,18.70
2017-06-29T00:34:09.717Z,18.60
2017-06-29T00:36:41.289Z,18.50
2017-06-29T00:39:18.094Z,18.40
2017-06-29T00:41:46.200Z,18.40
2017-06-29T00:44:21.950Z,18.40
2017-06-29T00:46:57.134Z,18.30
2017-06-29T00:49:25.265Z,18.20
2017-06-29T00:51:53.348Z,18.20
2017-06-29T00:54:22.352Z,18.00
2017-06-29T00:56:51.276Z,18.00
2017-06-29T00:59:19.412Z,18.00
2017-06-29T01:01:47.509Z,18.00
2017-06-29T01:04:16.393Z,18.00
2017-06-29T01:06:45.249Z,18.00
2017-06-29T01:09:13.370Z,18.00
2017-06-29T01:11:42.397Z,18.00
2017-06-29T01:14:10.493Z,18.00
2017-06-29T01:16:38.598Z,18.00
2017-06-29T01:19:06.737Z,17.90
2017-06-29T01:21:34.873Z,17.90
2017-06-29T01:24:03.731Z,17.90
2017-06-29T01:26:31.843Z,17.90
2017-06-29T01:29:00.851Z,17.90
2017-06-29T01:31:29.750Z,17.90
2017-06-29T01:33:57.858Z,17.80
2017-06-29T01:36:25.953Z,17.90
2017-06-29T01:38:54.090Z,17.80
2017-06-29T01:41:22.185Z,17.80
2017-06-29T01:43:50.299Z,17.70
2017-06-29T01:46:18.532Z,17.70
2017-06-29T01:48:46.687Z,17.70
2017-06-29T01:51:15.538Z,17.50
2017-06-29T01:53:43.637Z,17.50
2017-06-29T01:56:13.022Z,17.50
2017-06-29T01:58:41.258Z,17.40
2017-06-29T02:01:09.363Z,17.50
2017-06-29T02:03:37.496Z,17.40
2017-06-29T02:06:05.606Z,17.40
2017-06-29T02:08:33.723Z,17.40
2017-06-29T02:11:01.822Z,17.30
2017-06-29T02:13:30.678Z,17.20
2017-06-29T02:15:58.913Z,17.20
2017-06-29T02:18:27.009Z,17.20
2017-06-29T02:20:55.195Z,17.20
2017-06-29T02:23:23.312Z,17.20
2017-06-29T02:25:59.385Z,17.20
2017-06-29T02:28:28.268Z,17.10
2017-06-29T02:30:57.138Z,17.10
2017-06-29T02:33:25.229Z,17.00
2017-06-29T02:35:53.361Z,17.10
2017-06-29T02:38:22.681Z,17.10
2017-06-29T02:41:07.738Z,17.00
2017-06-29T02:43:35.830Z,17.00
2017-06-29T02:46:03.933Z,17.00
2017-06-29T02:48:32.063Z,17.00
2017-06-29T02:51:00.156Z,17.00
2017-06-29T02:53:28.280Z,17.10
2017-06-29T02:55:57.144Z,17.20
2017-06-29T02:58:25.242Z,17.20
2017-06-29T03:00:54.236Z,17.30
2017-06-29T03:03:22.357Z,17.30
2017-06-29T03:05:50.483Z,17.30
2017-06-29T03:08:18.575Z,17.30
2017-06-29T03:10:47.453Z,17.30
2017-06-29T03:13:15.583Z,17.30
2017-06-29T03:15:43.680Z,17.40
2017-06-29T03:18:11.781Z,17.50
2017-06-29T03:20:40.001Z,17.50
2017-06-29T03:23:08.131Z,17.60
2017-06-29T03:25:36.216Z,17.50
2017-06-29T03:28:04.343Z,17.60
2017-06-29T03:30:32.437Z,17.60
2017-06-29T03:33:00.548Z,17.60
2017-06-29T03:35:28.777Z,17.60
2017-06-29T03:37:56.915Z,17.60
2017-06-29T03:40:25.812Z,17.60
2017-06-29T03:42:54.685Z,17.60
2017-06-29T03:45:22.797Z,17.60
2017-06-29T03:47:51.672Z,17.60
2017-06-29T03:50:19.767Z,17.60
2017-06-29T03:52:48.761Z,17.70
2017-06-29T03:55:17.627Z,17.70
2017-06-29T03:57:45.753Z,17.70
2017-06-29T04:00:13.841Z,17.80
2017-06-29T04:02:41.930Z,17.80
2017-06-29T04:05:10.052Z,17.80
2017-06-29T04:07:38.150Z,17.80
2017-06-29T04:10:07.142Z,17.70
2017-06-29T04:12:36.029Z,17.70
2017-06-29T04:15:04.891Z,17.70
2017-06-29T04:17:32.988Z,17.70
2017-06-29T04:20:01.873Z,17.70
2017-06-29T04:22:30.008Z,17.70
2017-06-29T04:24:58.113Z,17.70
2017-06-29T04:27:26.361Z,17.60
2017-06-29T04:29:54.440Z,17.60
2017-06-29T04:32:22.533Z,17.60
2017-06-29T04:34:50.640Z,17.60
2017-06-29T04:37:18.769Z,17.60
2017-06-29T04:39:46.875Z,17.50
2017-06-29T04:42:15.000Z,17.50
2017-06-29T04:44:43.162Z,17.50
2017-06-29T04:47:11.245Z,17.50
2017-06-29T04:49:40.148Z,17.60
2017-06-29T04:52:08.249Z,17.50
2017-06-29T04:54:36.373Z,17.60
2017-06-29T04:57:04.536Z,17.60
2017-06-29T04:59:32.633Z,17.60
2017-06-29T05:02:00.738Z,17.60
2017-06-29T05:04:28.969Z,17.50
2017-06-29T05:06:57.097Z,17.50
2017-06-29T05:09:25.198Z,17.40
2017-06-29T05:11:53.285Z,17.40
2017-06-29T05:14:21.412Z,17.30
2017-06-29T05:16:50.280Z,17.20
2017-06-29T05:19:18.500Z,17.20
2017-06-29T05:21:46.588Z,17.20
2017-06-29T05:24:14.745Z,17.30
2017-06-29T05:26:43.615Z,17.30
2017-06-29T05:29:11.741Z,17.30
2017-06-29T05:31:39.839Z,17.30
2017-06-29T05:34:07.944Z,17.30
2017-06-29T05:36:36.074Z,17.30
2017-06-29T05:39:04.187Z,17.30
2017-06-29T05:41:32.468Z,17.30
2017-06-29T05:44:00.584Z,17.30
2017-06-29T05:46:29.478Z,17.50
2017-06-29T05:48:58.384Z,17.60
2017-06-29T05:51:26.506Z,17.60
2017-06-29T05:53:54.682Z,17.50
2017-06-29T05:56:22.789Z,17.40
2017-06-29T05:58:50.935Z,17.40
2017-06-29T06:01:19.174Z,17.50
2017-06-29T06:03:47.294Z,17.50
2017-06-29T06:06:15.445Z,17.60
2017-06-29T06:08:43.558Z,17.50
2017-06-29T09:53:59.689Z,17.50
2017-06-29T09:56:27.833Z,20.50
2017-06-29T09:58:55.965Z,20.40
2017-06-29T10:01:24.145Z,20.40
2017-06-29T10:03:53.004Z,20.40
2017-06-29T10:06:21.118Z,20.40
2017-06-29T10:08:59.277Z,20.50
2017-06-29T10:11:30.604Z,20.40
2017-06-29T10:13:58.689Z,20.50
2017-06-29T10:16:30.646Z,20.50
2017-06-29T10:19:07.911Z,20.50
2017-06-29T10:21:43.170Z,20.50
2017-06-29T10:24:18.761Z,20.50
2017-06-29T10:26:46.897Z,20.50
2017-06-29T10:29:18.094Z,20.60
2017-06-29T10:31:53.932Z,20.60
2017-06-29T10:34:29.233Z,20.50
2017-06-29T10:37:04.389Z,20.50
2017-06-29T10:39:36.109Z,20.60
2017-06-29T10:42:17.066Z,20.70
2017-06-29T10:44:48.182Z,20.70
2017-06-29T10:47:24.067Z,20.70
2017-06-29T10:49:55.780Z,20.80
2017-06-29T10:52:31.496Z,20.80
2017-06-29T10:55:03.091Z,20.80
2017-06-29T10:57:38.729Z,20.80
2017-06-29T11:00:13.776Z,20.90
2017-06-29T11:02:44.875Z,20.90
2017-06-29T11:05:16.467Z,21.00
2017-06-29T11:07:51.845Z,21.10
2017-06-29T11:10:23.377Z,21.20
2017-06-29T11:12:54.749Z,21.30
2017-06-29T11:15:26.270Z,21.40
2017-06-29T11:17:58.209Z,21.30
2017-06-29T11:20:33.344Z,21.30
2017-06-29T11:23:05.084Z,21.40
2017-06-29T11:25:40.470Z,21.40
2017-06-29T11:28:12.096Z,21.40
2017-06-29T11:30:47.132Z,21.40
2017-06-29T11:33:22.819Z,21.60
2017-06-29T11:35:54.535Z,21.70
2017-06-29T11:38:26.299Z,21.80
2017-06-29T11:41:01.444Z,21.90
2017-06-29T11:43:37.067Z,22.00
2017-06-29T11:46:09.009Z,22.20
2017-06-29T11:48:40.925Z,22.30
2017-06-29T11:51:16.849Z,22.40
2017-06-29T11:53:51.878Z,22.30
2017-06-29T11:56:33.435Z,22.30
2017-06-29T11:59:01.685Z,22.50
2017-06-29T12:01:29.833Z,22.70
2017-06-29T12:03:57.939Z,22.80
2017-06-29T12:06:26.053Z,23.00
2017-06-29T12:08:54.162Z,23.10
2017-06-29T12:11:22.316Z,23.40
2017-06-29T12:13:50.449Z,23.60
2017-06-29T12:16:18.673Z,23.60
2017-06-29T12:18:46.810Z,23.60
2017-06-29T12:21:14.920Z,23.80
2017-06-29T12:23:43.031Z,23.90
2017-06-29T12:26:11.146Z,24.00
2017-06-29T12:28:39.249Z,24.20
2017-06-29T12:31:15.097Z,24.40
2017-06-29T12:33:50.125Z,24.50
2017-06-29T12:36:18.292Z,24.60
2017-06-29T12:38:46.452Z,24.60
2017-06-29T12:41:14.547Z,24.50
2017-06-29T12:43:42.664Z,24.30
2017-06-29T12:46:18.615Z,24.40
2017-06-29T12:48:46.744Z,24.30
2017-06-29T12:51:16.416Z,23.60
2017-06-29T12:53:44.618Z,22.80
2017-06-29T12:56:12.789Z,22.10
2017-06-29T12:58:40.906Z,21.60
2017-06-29T13:01:16.055Z,21.30
2017-06-29T13:03:51.114Z,20.70
2017-06-29T13:06:23.078Z,20.40
2017-06-29T13:08:58.838Z,20.10
2017-06-29T13:11:34.626Z,19.90
2017-06-29T13:14:03.516Z,19.80
2017-06-29T13:16:39.452Z,19.90
2017-06-29T13:19:11.136Z,20.00
2017-06-29T13:21:43.017Z,20.30
2017-06-29T13:24:18.901Z,20.60
2017-06-29T13:26:54.471Z,20.90
2017-06-29T13:29:25.979Z,21.20
2017-06-29T13:32:01.141Z,21.60
2017-06-29T13:34:36.565Z,21.80
2017-06-29T13:37:11.905Z,22.00
2017-06-29T13:39:43.778Z,22.20
2017-06-29T13:42:19.223Z,22.50
2017-06-29T13:44:54.664Z,22.50
2017-06-29T13:47:25.774Z,22.50
2017-06-29T13:49:57.358Z,22.60
2017-06-29T13:52:33.636Z,22.70
2017-06-29T13:55:08.783Z,22.80
2017-06-29T13:57:45.827Z,22.90
2017-06-29T14:00:21.476Z,22.90
2017-06-29T14:02:57.035Z,23.00
2017-06-29T14:05:32.498Z,23.10
2017-06-29T14:08:08.290Z,23.10
2017-06-29T14:10:40.009Z,23.20
2017-06-29T14:13:16.706Z,23.30
2017-06-29T14:15:52.423Z,23.40
2017-06-29T14:18:23.774Z,23.50
2017-06-29T14:20:59.469Z,23.50
2017-06-29T14:23:34.713Z,23.50
2017-06-29T14:26:10.623Z,23.60
2017-06-29T14:28:46.209Z,23.60
2017-06-29T14:31:21.386Z,23.60
2017-06-29T14:33:57.447Z,23.70
2017-06-29T14:36:29.414Z,23.80
2017-06-29T14:39:05.777Z,23.80
2017-06-29T14:41:37.731Z,23.70
2017-06-29T14:44:09.310Z,23.80
2017-06-29T14:46:40.697Z,23.80
2017-06-29T14:49:16.383Z,23.90
2017-06-29T14:51:47.594Z,23.90
2017-06-29T14:54:24.420Z,24.00
2017-06-29T14:56:54.092Z,24.00
2017-06-29T14:59:25.549Z,24.00
2017-06-29T15:02:01.193Z,24.00
2017-06-29T15:04:30.242Z,24.00
2017-06-29T15:07:46.823Z,24.00
2017-06-29T15:10:21.850Z,23.90
2017-06-29T15:12:57.197Z,23.80
2017-06-29T15:15:33.864Z,23.60
2017-06-29T15:18:09.701Z,23.30
2017-06-29T15:20:41.689Z,23.10
2017-06-29T15:23:17.494Z,23.10
2017-06-29T15:25:53.060Z,23.10
2017-06-29T15:28:24.202Z,23.10
2017-06-29T15:30:55.988Z,23.00
2017-06-29T15:33:48.321Z,23.00
2017-06-29T15:36:23.314Z,22.90
2017-06-29T15:38:59.387Z,22.80
2017-06-29T15:41:35.209Z,22.60
2017-06-29T15:44:10.684Z,22.50
2017-06-29T15:46:42.026Z,22.20
2017-06-29T15:49:17.944Z,22.10
2017-06-29T15:51:53.370Z,22.00
2017-06-29T15:54:24.711Z,21.90
2017-06-29T15:57:01.890Z,21.90
2017-06-29T15:59:33.540Z,21.70
2017-06-29T16:02:09.079Z,21.70
2017-06-29T16:04:40.777Z,21.70
2017-06-29T16:07:15.936Z,21.60
2017-06-29T16:09:51.777Z,21.50
2017-06-29T16:12:27.004Z,21.50
2017-06-29T16:15:02.806Z,21.40
2017-06-29T16:17:41.309Z,21.30
2017-06-29T16:20:12.749Z,21.00
2017-06-29T16:22:44.101Z,20.80
2017-06-29T16:25:19.262Z,20.70
2017-06-29T16:31:15.510Z,20.30
2017-06-29T16:33:51.456Z,20.20
2017-06-29T16:36:23.158Z,20.20
2017-06-29T16:38:58.704Z,20.10
2017-06-29T16:41:34.680Z,20.10
2017-06-29T16:44:09.824Z,20.10
2017-06-29T16:46:44.829Z,20.10
2017-06-29T16:49:20.499Z,20.20
2017-06-29T16:51:55.569Z,20.20
2017-06-29T16:54:27.138Z,20.30
2017-06-29T16:57:02.441Z,20.30
2017-06-29T16:59:37.471Z,20.30
2017-06-29T17:02:12.636Z,20.30
2017-06-29T17:04:44.464Z,20.30
2017-06-29T17:07:16.254Z,20.20
2017-06-29T17:09:47.750Z,20.20
2017-06-29T17:12:19.240Z,20.20
2017-06-29T17:14:50.339Z,20.30
2017-06-29T17:17:21.851Z,20.30
2017-06-29T17:19:58.612Z,20.20
2017-06-29T17:22:30.037Z,20.20
2017-06-29T17:25:05.303Z,20.30
2017-06-29T17:27:36.522Z,20.30
2017-06-29T17:30:07.970Z,20.30
2017-06-29T17:32:43.809Z,20.30
2017-06-29T17:35:15.081Z,20.30
2017-06-29T17:37:50.173Z,20.30
2017-06-29T17:40:26.147Z,20.40
2017-06-29T17:42:54.212Z,20.40
2017-06-29T17:45:22.340Z,20.50
2017-06-29T17:47:50.490Z,20.60
2017-06-29T17:50:18.636Z,20.60
2017-06-29T17:52:46.785Z,20.60
2017-06-29T17:55:14.929Z,20.70
2017-06-29T17:57:43.036Z,20.60
2017-06-29T18:00:11.267Z,20.70
2017-06-29T18:02:40.958Z,20.70
2017-06-29T18:05:09.156Z,20.70
2017-06-29T18:07:37.288Z,20.70
2017-06-29T18:10:05.400Z,20.50
2017-06-29T18:12:33.539Z,20.30
2017-06-29T18:15:01.658Z,20.10
2017-06-29T18:20:51.665Z,19.80
2017-06-29T18:23:19.813Z,19.70
2017-06-29T18:25:51.553Z,19.60
2017-06-29T18:28:19.646Z,19.60
2017-06-29T18:30:47.781Z,19.40
2017-06-29T18:33:15.897Z,19.40
2017-06-29T18:35:44.035Z,19.40
2017-06-29T18:38:12.199Z,19.20
2017-06-29T18:40:40.348Z,19.20
2017-06-29T18:43:15.416Z,19.20
2017-06-29T18:45:43.532Z,19.20
2017-06-29T18:48:11.664Z,19.20
2017-06-29T18:50:40.314Z,19.30
2017-06-29T18:53:08.431Z,19.20
2017-06-29T18:55:36.606Z,19.20
2017-06-29T18:58:04.951Z,19.10
2017-06-29T19:00:33.087Z,19.10
2017-06-29T19:03:01.193Z,19.10
2017-06-29T19:05:29.337Z,19.10
2017-06-29T19:07:57.460Z,19.10
2017-06-29T19:10:25.586Z,19.20
2017-06-29T19:12:53.857Z,19.10
2017-06-29T19:15:22.030Z,19.10
2017-06-29T19:18:03.424Z,19.20
2017-06-29T19:20:31.596Z,19.20
2017-06-29T19:22:59.730Z,19.20
2017-06-29T19:25:27.834Z,19.20
2017-06-29T19:27:56.100Z,19.10
2017-06-29T19:30:24.193Z,19.20
2017-06-29T19:32:52.427Z,19.20
2017-06-29T19:35:20.578Z,19.20
2017-06-29T19:37:48.727Z,19.10
2017-06-29T19:40:16.815Z,19.10
2017-06-29T19:42:44.945Z,19.20
2017-06-29T19:45:13.106Z,19.10
2017-06-29T19:47:41.243Z,19.10
2017-06-29T19:50:09.503Z,19.00
2017-06-29T19:52:37.600Z,19.10
2017-06-29T19:55:05.733Z,19.10
2017-06-29T19:57:33.873Z,19.10
2017-06-29T20:00:01.980Z,19.10
2017-06-29T20:02:30.143Z,19.10
2017-06-29T20:04:58.247Z,19.10
2017-06-29T20:07:26.350Z,19.00
2017-06-29T20:09:54.600Z,19.00
2017-06-29T20:12:22.708Z,18.80
2017-06-29T20:14:50.845Z,18.80
2017-06-29T20:17:18.953Z,18.80
2017-06-29T20:19:47.114Z,18.80
2017-06-29T20:22:15.259Z,18.70
2017-06-29T20:24:43.375Z,18.70
2017-06-29T20:27:11.501Z,18.70
2017-06-29T20:29:39.753Z,18.70
2017-06-29T20:32:07.848Z,18.80
2017-06-29T20:34:35.959Z,19.00
2017-06-29T20:37:04.108Z,18.90
2017-06-29T20:39:32.257Z,19.00
2017-06-29T20:42:00.365Z,19.00
2017-06-29T20:44:28.492Z,19.00
2017-06-29T20:46:56.588Z,19.00
2017-06-29T20:49:24.834Z,19.00
2017-06-29T20:51:52.935Z,18.90
2017-06-29T20:54:21.057Z,18.90
2017-06-29T20:56:49.301Z,18.70
2017-06-29T20:59:17.413Z,18.60
2017-06-29T21:01:45.550Z,18.50
2017-06-29T21:04:13.653Z,18.40
2017-06-29T21:06:41.764Z,18.40
2017-06-29T21:09:09.898Z,18.30
2017-06-29T21:11:38.023Z,18.00
2017-06-29T21:14:06.133Z,17.90
2017-06-29T21:16:34.404Z,17.80
2017-06-29T21:19:02.560Z,17.60
2017-06-29T21:21:30.648Z,17.60
2017-06-29T21:23:58.801Z,17.40
2017-06-29T21:26:26.933Z,17.40
2017-06-29T21:28:55.028Z,17.40
2017-06-29T21:31:23.260Z,17.40
2017-06-29T21:33:51.366Z,17.40
2017-06-29T21:36:19.455Z,17.40
2017-06-29T21:38:47.589Z,17.40
2017-06-29T21:41:15.686Z,17.40
2017-06-29T21:43:43.800Z,17.40
2017-06-29T21:46:11.926Z,17.50
2017-06-29T21:48:40.153Z,17.40
2017-06-29T21:51:09.499Z,17.40
2017-06-29T21:53:37.601Z,17.30
2017-06-29T21:56:05.732Z,17.30
2017-06-29T21:58:33.857Z,17.30
2017-06-29T22:01:01.959Z,17.20
2017-06-29T22:03:30.045Z,17.20
2017-06-29T22:05:58.272Z,17.10
2017-06-29T22:08:26.370Z,17.10
2017-06-29T22:10:54.623Z,17.00
2017-06-29T22:13:22.721Z,16.90
2017-06-29T22:15:50.815Z,16.90
2017-06-29T22:18:18.962Z,16.90
2017-06-29T22:20:47.061Z,16.90
2017-06-29T22:23:15.192Z,16.90
2017-06-29T22:25:43.284Z,16.90
2017-06-29T22:28:11.526Z,16.90
2017-06-29T22:30:39.618Z,17.00
2017-06-29T22:33:07.752Z,17.00
2017-06-29T22:35:35.893Z,16.90
2017-06-29T22:38:03.972Z,16.90
2017-06-29T22:40:32.221Z,16.90
2017-06-29T22:43:00.308Z,16.90
2017-06-29T22:45:28.436Z,16.80
2017-06-29T22:47:56.541Z,16.80
2017-06-29T22:50:24.636Z,16.70
2017-06-29T22:52:52.766Z,16.60
2017-06-29T22:55:20.869Z,16.50
2017-06-29T22:57:48.968Z,16.40
2017-06-29T23:00:17.211Z,16.40
2017-06-29T23:02:45.376Z,16.40
2017-06-29T23:05:13.460Z,16.40
2017-06-29T23:07:41.544Z,16.40
2017-06-29T23:10:09.670Z,16.40
2017-06-29T23:12:37.757Z,16.40
2017-06-29T23:15:05.856Z,16.30
2017-06-29T23:17:33.985Z,16.20
2017-06-29T23:20:02.091Z,16.20
2017-06-29T23:22:30.325Z,16.20
2017-06-29T23:24:58.422Z,16.20
2017-06-29T23:27:26.540Z,16.20
2017-06-29T23:29:54.673Z,16.30
2017-06-29T23:32:22.768Z,16.30
2017-06-29T23:34:50.895Z,16.30
2017-06-29T23:37:18.972Z,16.30
2017-06-29T23:39:47.204Z,16.20
2017-06-29T23:42:15.297Z,16.10
2017-06-29T23:44:43.420Z,16.10
2017-06-29T23:47:11.520Z,16.00
2017-06-29T23:49:39.678Z,16.00
2017-06-29T23:52:07.774Z,16.00
2017-06-29T23:54:35.909Z,16.00
2017-06-29T23:57:04.022Z,16.00
2017-06-29T23:59:32.122Z,16.00
